Time;durP1;ratioP1;P1;durP2;ratioP2;P2;SDS_P1;SDS_P2;PMS_P1;PMS_P2;Temp;Humidity;BMP_temperature;BMP_pressure;BME280_temperature;BME280_humidity;BME280_pressure;Samples;Min_cycle;Max_cycle;Signal;HPM_P1;HPM_P2
2021/05/28 00:02:13;;;;;;;6.55;6.05;;;;;;;;;;4986021;28;20206;-47
2021/05/28 00:04:41;;;;;;;6.00;5.55;;;;;;;;;;4988855;28;20739;-47
2021/05/28 00:07:06;;;;;;;6.53;6.03;;;;;;;;;;4989009;28;20253;-46
2021/05/28 00:09:31;;;;;;;6.50;6.00;;;;;;;;;;4986841;28;20768;-47
2021/05/28 00:11:56;;;;;;;7.30;6.70;;;;;;;;;;4989215;28;20710;-47
2021/05/28 00:14:21;;;;;;;6.45;5.95;;;;;;;;;;4988710;28;20166;-47
2021/05/28 00:16:47;;;;;;;7.47;6.77;;;;;;;;;;4988837;28;20260;-47
2021/05/28 00:19:12;;;;;;;6.50;6.00;;;;;;;;;;4989494;28;20190;-48
2021/05/28 00:21:37;;;;;;;6.60;6.10;;;;;;;;;;4986473;28;20189;-48
2021/05/28 00:24:03;;;;;;;6.40;5.80;;;;;;;;;;4986053;28;20182;-47
2021/05/28 00:26:28;;;;;;;6.93;6.40;;;;;;;;;;4988149;28;20178;-47
2021/05/28 00:28:53;;;;;;;6.20;5.67;;;;;;;;;;4989447;28;20217;-48
2021/05/28 00:31:19;;;;;;;7.73;6.93;;;;;;;;;;4986406;28;20240;-48
2021/05/28 00:33:44;;;;;;;5.93;5.53;;;;;;;;;;4988847;28;20209;-47
2021/05/28 00:36:09;;;;;;;7.20;6.60;;;;;;;;;;4985298;28;20178;-47
2021/05/28 00:38:35;;;;;;;6.40;5.80;;;;;;;;;;4992830;28;20201;-48
2021/05/28 00:41:00;;;;;;;7.33;6.73;;;;;;;;;;4986248;28;20185;-47
2021/05/28 00:43:25;;;;;;;7.37;6.67;;;;;;;;;;4988431;28;20644;-47
2021/05/28 00:45:50;;;;;;;7.53;6.72;;;;;;;;;;4987712;28;20233;-47
2021/05/28 00:48:15;;;;;;;7.00;6.40;;;;;;;;;;5000814;28;20206;-48
2021/05/28 00:50:40;;;;;;;7.35;6.63;;;;;;;;;;4988293;28;20529;-48
2021/05/28 00:53:06;;;;;;;7.22;6.63;;;;;;;;;;4992640;28;20227;-49
2021/05/28 00:55:31;;;;;;;7.83;7.20;;;;;;;;;;4989359;28;20162;-47
2021/05/28 00:57:56;;;;;;;7.50;6.90;;;;;;;;;;4987545;28;20462;-46
2021/05/28 01:00:25;;;;;;;7.40;6.80;;;;;;;;;;4988376;28;20656;-47
2021/05/28 01:02:50;;;;;;;7.40;6.80;;;;;;;;;;4986920;28;20553;-48
2021/05/28 01:05:15;;;;;;;8.47;7.77;;;;;;;;;;4986448;28;20613;-48
2021/05/28 01:07:40;;;;;;;7.80;7.10;;;;;;;;;;4988604;28;20245;-45
2021/05/28 01:10:06;;;;;;;8.13;7.43;;;;;;;;;;4987686;28;20190;-45
2021/05/28 01:12:31;;;;;;;7.90;7.30;;;;;;;;;;4987753;28;20166;-47
2021/05/28 01:14:56;;;;;;;8.13;7.40;;;;;;;;;;4986422;28;20663;-46
2021/05/28 01:17:22;;;;;;;8.27;7.47;;;;;;;;;;4985461;28;20599;-47
2021/05/28 01:19:48;;;;;;;8.80;8.00;;;;;;;;;;4987236;28;20315;-47
2021/05/28 01:22:13;;;;;;;8.23;7.53;;;;;;;;;;4987446;28;20656;-47
2021/05/28 01:24:38;;;;;;;7.77;7.07;;;;;;;;;;4987527;28;20643;-47
2021/05/28 01:27:03;;;;;;;8.30;7.60;;;;;;;;;;4987513;28;20187;-48
2021/05/28 01:29:29;;;;;;;7.70;6.97;;;;;;;;;;4986390;28;20329;-47
2021/05/28 01:31:54;;;;;;;8.77;8.00;;;;;;;;;;4987595;28;20722;-46
2021/05/28 01:34:19;;;;;;;8.03;7.43;;;;;;;;;;4998286;28;20181;-47
2021/05/28 01:36:44;;;;;;;8.20;7.50;;;;;;;;;;4999561;28;20166;-48
2021/05/28 01:39:10;;;;;;;8.60;7.70;;;;;;;;;;4992893;28;20182;-47
2021/05/28 01:41:35;;;;;;;7.90;7.20;;;;;;;;;;4985552;28;20311;-47
2021/05/28 01:44:00;;;;;;;8.00;7.30;;;;;;;;;;4990874;28;20264;-48
2021/05/28 01:46:25;;;;;;;9.15;6.88;;;;;;;;;;5001898;28;20381;-47
2021/05/28 01:48:51;;;;;;;8.20;7.50;;;;;;;;;;4987210;28;20240;-47
2021/05/28 01:51:16;;;;;;;8.30;7.47;;;;;;;;;;4986571;28;20174;-47
2021/05/28 01:53:41;;;;;;;7.43;6.80;;;;;;;;;;4996509;28;20181;-47
2021/05/28 01:56:07;;;;;;;7.20;6.60;;;;;;;;;;4988625;28;20208;-47
2021/05/28 01:58:32;;;;;;;7.23;6.63;;;;;;;;;;4987558;28;20183;-47
2021/05/28 02:00:58;;;;;;;7.10;6.50;;;;;;;;;;4985382;28;20185;-47
2021/05/28 02:03:24;;;;;;;8.53;7.70;;;;;;;;;;4993511;28;20840;-47
2021/05/28 02:05:49;;;;;;;7.63;7.03;;;;;;;;;;4987054;28;20671;-46
2021/05/28 02:08:14;;;;;;;7.27;6.57;;;;;;;;;;4988937;28;20256;-47
2021/05/28 02:10:40;;;;;;;7.90;7.20;;;;;;;;;;4989086;28;20638;-47
2021/05/28 02:13:05;;;;;;;8.07;6.70;;;;;;;;;;4986753;28;20229;-46
2021/05/28 02:15:30;;;;;;;7.60;7.00;;;;;;;;;;4988863;28;20178;-47
2021/05/28 02:17:55;;;;;;;8.07;7.40;;;;;;;;;;4990228;28;20182;-47
2021/05/28 02:20:21;;;;;;;7.70;7.00;;;;;;;;;;4992028;28;20687;-46
2021/05/28 02:22:46;;;;;;;7.90;7.20;;;;;;;;;;4990741;28;20274;-46
2021/05/28 02:25:13;;;;;;;7.03;6.43;;;;;;;;;;4988330;28;20180;-48
2021/05/28 02:27:38;;;;;;;7.50;6.90;;;;;;;;;;4990425;28;20198;-47
2021/05/28 02:30:04;;;;;;;8.27;7.32;;;;;;;;;;4995662;28;20660;-46
2021/05/28 02:32:29;;;;;;;8.83;7.10;;;;;;;;;;4989122;28;20186;-47
2021/05/28 02:34:54;;;;;;;7.20;6.50;;;;;;;;;;4990590;28;20590;-46
2021/05/28 02:37:20;;;;;;;8.97;8.10;;;;;;;;;;4992835;28;20254;-47
2021/05/28 02:39:45;;;;;;;8.43;7.70;;;;;;;;;;4989052;28;20228;-47
2021/05/28 02:42:10;;;;;;;8.57;7.63;;;;;;;;;;4989467;28;20216;-47
2021/05/28 02:44:36;;;;;;;8.27;7.57;;;;;;;;;;4989727;28;20631;-48
2021/05/28 02:47:01;;;;;;;10.20;8.00;;;;;;;;;;4996857;28;20185;-48
2021/05/28 02:49:26;;;;;;;8.47;7.70;;;;;;;;;;5001656;28;20639;-47
2021/05/28 02:51:51;;;;;;;8.45;7.75;;;;;;;;;;4990092;28;20221;-47
2021/05/28 02:54:16;;;;;;;8.90;8.13;;;;;;;;;;4990494;28;20181;-46
2021/05/28 02:56:41;;;;;;;8.80;8.10;;;;;;;;;;4988216;28;20836;-47
2021/05/28 02:59:07;;;;;;;8.87;8.07;;;;;;;;;;4990566;28;20182;-47
2021/05/28 03:01:32;;;;;;;9.57;8.68;;;;;;;;;;4985206;28;20182;-46
2021/05/28 03:03:57;;;;;;;8.48;7.78;;;;;;;;;;4987895;28;20173;-46
2021/05/28 03:06:22;;;;;;;10.00;9.00;;;;;;;;;;4991750;28;20222;-46
2021/05/28 03:08:47;;;;;;;10.10;9.13;;;;;;;;;;4990213;28;20272;-46
2021/05/28 03:11:12;;;;;;;8.80;8.05;;;;;;;;;;4986139;28;20552;-46
2021/05/28 03:13:38;;;;;;;9.73;8.85;;;;;;;;;;4990130;28;20170;-47
2021/05/28 03:16:03;;;;;;;9.80;8.80;;;;;;;;;;4988062;28;20209;-47
2021/05/28 03:18:44;;;;;;;9.70;8.80;;;;;;;;;;4989837;28;20578;-48
2021/05/28 03:21:20;;;;;;;9.87;9.07;;;;;;;;;;4987629;28;20181;-47
2021/05/28 03:23:50;;;;;;;9.50;8.70;;;;;;;;;;4990549;28;20696;-47
2021/05/28 03:26:15;;;;;;;10.00;9.20;;;;;;;;;;4986698;28;20930;-47
2021/05/28 03:28:40;;;;;;;10.40;9.43;;;;;;;;;;4985417;28;20655;-47
2021/05/28 03:31:05;;;;;;;10.40;9.40;;;;;;;;;;4989618;28;20705;-46
2021/05/28 03:33:30;;;;;;;10.48;9.48;;;;;;;;;;4993696;28;20595;-48
2021/05/28 03:35:56;;;;;;;10.80;9.90;;;;;;;;;;4991037;28;20574;-46
2021/05/28 03:38:21;;;;;;;15.97;10.80;;;;;;;;;;4989137;28;20244;-47
2021/05/28 03:40:46;;;;;;;10.00;9.02;;;;;;;;;;4988326;28;20177;-45
2021/05/28 03:43:11;;;;;;;10.48;9.30;;;;;;;;;;4987425;28;20182;-47
2021/05/28 03:45:36;;;;;;;9.50;8.70;;;;;;;;;;4994028;28;20174;-47
2021/05/28 03:48:02;;;;;;;10.37;9.47;;;;;;;;;;4986249;28;20208;-46
2021/05/28 03:50:27;;;;;;;9.60;8.80;;;;;;;;;;4986123;28;20206;-49
2021/05/28 03:52:52;;;;;;;10.00;9.20;;;;;;;;;;4985014;28;20215;-47
2021/05/28 03:55:17;;;;;;;11.98;10.85;;;;;;;;;;4985869;28;20967;-47
2021/05/28 03:57:42;;;;;;;11.50;10.40;;;;;;;;;;4994583;28;20178;-48
2021/05/28 04:00:08;;;;;;;10.98;10.07;;;;;;;;;;4986820;28;20263;-48
2021/05/28 04:02:33;;;;;;;11.37;10.27;;;;;;;;;;4986665;28;20665;-46
2021/05/28 04:04:58;;;;;;;11.38;10.35;;;;;;;;;;4983265;28;20702;-47
2021/05/28 04:07:25;;;;;;;10.67;9.67;;;;;;;;;;4986317;28;20224;-46
2021/05/28 04:09:50;;;;;;;12.13;11.13;;;;;;;;;;5003935;28;20208;-47
2021/05/28 04:12:15;;;;;;;11.40;10.40;;;;;;;;;;5005992;28;20612;-48
2021/05/28 04:14:40;;;;;;;11.77;10.77;;;;;;;;;;4995553;28;20214;-46
2021/05/28 04:17:06;;;;;;;12.13;11.02;;;;;;;;;;4984363;28;20534;-48
2021/05/28 04:19:31;;;;;;;11.87;10.87;;;;;;;;;;4985855;28;20186;-47
2021/05/28 04:21:56;;;;;;;12.75;11.48;;;;;;;;;;4985878;28;20684;-47
2021/05/28 04:24:21;;;;;;;13.10;11.80;;;;;;;;;;4999973;28;20238;-47
2021/05/28 04:26:46;;;;;;;13.50;12.20;;;;;;;;;;5005743;28;20183;-48
2021/05/28 04:29:11;;;;;;;11.82;10.75;;;;;;;;;;5005136;28;20240;-48
2021/05/28 04:31:37;;;;;;;11.03;10.20;;;;;;;;;;5003283;28;20228;-48
2021/05/28 04:34:02;;;;;;;11.80;10.70;;;;;;;;;;4998321;28;20178;-47
2021/05/28 04:36:27;;;;;;;12.60;11.40;;;;;;;;;;4985361;28;20174;-48
2021/05/28 04:38:52;;;;;;;13.90;12.70;;;;;;;;;;4982317;28;20187;-48
2021/05/28 04:41:17;;;;;;;13.80;12.60;;;;;;;;;;4983621;28;20616;-47
2021/05/28 04:43:42;;;;;;;13.02;11.85;;;;;;;;;;4984229;28;20189;-47
2021/05/28 04:46:08;;;;;;;11.90;10.80;;;;;;;;;;4984835;28;20229;-48
2021/05/28 04:48:33;;;;;;;12.63;11.63;;;;;;;;;;4982900;28;20252;-48
2021/05/28 04:50:58;;;;;;;11.75;10.75;;;;;;;;;;4982627;28;20178;-47
2021/05/28 04:53:23;;;;;;;12.17;11.03;;;;;;;;;;4990073;28;20272;-50
2021/05/28 04:55:48;;;;;;;13.50;12.07;;;;;;;;;;4985702;28;20213;-47
2021/05/28 04:58:13;;;;;;;12.75;11.65;;;;;;;;;;4982591;28;20600;-48
2021/05/28 05:00:39;;;;;;;12.20;11.20;;;;;;;;;;5000410;28;20773;-47
2021/05/28 05:03:04;;;;;;;12.53;11.43;;;;;;;;;;4996354;28;20249;-47
2021/05/28 05:05:29;;;;;;;11.60;10.60;;;;;;;;;;4983979;28;20182;-47
2021/05/28 05:07:54;;;;;;;13.27;12.17;;;;;;;;;;4983628;28;20191;-47
2021/05/28 05:10:19;;;;;;;13.07;11.97;;;;;;;;;;4981508;28;20181;-47
2021/05/28 05:12:45;;;;;;;12.93;11.73;;;;;;;;;;4984742;28;20649;-48
2021/05/28 05:15:10;;;;;;;12.63;11.53;;;;;;;;;;4982744;28;20184;-47
2021/05/28 05:17:36;;;;;;;13.07;11.87;;;;;;;;;;4986214;28;20835;-47
2021/05/28 05:20:01;;;;;;;13.52;12.32;;;;;;;;;;5002389;28;20173;-47
2021/05/28 05:22:26;;;;;;;13.17;12.00;;;;;;;;;;5002495;28;20232;-47
2021/05/28 05:24:51;;;;;;;13.53;12.33;;;;;;;;;;4985605;28;20175;-51
2021/05/28 05:27:16;;;;;;;12.43;11.50;;;;;;;;;;4985105;28;20181;-47
2021/05/28 05:29:41;;;;;;;12.80;11.70;;;;;;;;;;4987975;28;20240;-46
2021/05/28 05:32:07;;;;;;;12.68;11.57;;;;;;;;;;4985816;28;20537;-46
2021/05/28 05:34:32;;;;;;;12.53;11.53;;;;;;;;;;4987304;28;20197;-47
2021/05/28 05:37:00;;;;;;;12.37;11.40;;;;;;;;;;4987566;28;20284;-47
2021/05/28 05:39:25;;;;;;;13.43;12.27;;;;;;;;;;4987789;28;20201;-47
2021/05/28 05:41:50;;;;;;;13.97;12.87;;;;;;;;;;4987480;28;20670;-47
2021/05/28 05:44:16;;;;;;;12.00;11.05;;;;;;;;;;4985623;28;20229;-48
2021/05/28 05:46:41;;;;;;;13.10;12.00;;;;;;;;;;4985122;28;20213;-48
2021/05/28 05:49:06;;;;;;;13.20;11.97;;;;;;;;;;4985397;28;20213;-48
2021/05/28 05:51:31;;;;;;;12.77;11.67;;;;;;;;;;4990057;28;20175;-49
2021/05/28 05:54:00;;;;;;;12.23;11.23;;;;;;;;;;4974719;28;20181;-48
2021/05/28 05:56:26;;;;;;;11.87;10.87;;;;;;;;;;4979776;28;20236;-48
2021/05/28 05:58:51;;;;;;;11.50;10.50;;;;;;;;;;4980792;28;20605;-48
2021/05/28 06:01:16;;;;;;;10.83;9.93;;;;;;;;;;4982238;28;20197;-47
2021/05/28 06:03:41;;;;;;;12.67;11.57;;;;;;;;;;4987834;28;20220;-48
2021/05/28 06:06:06;;;;;;;9.10;8.40;;;;;;;;;;4986113;28;20552;-47
2021/05/28 06:08:32;;;;;;;8.38;7.78;;;;;;;;;;4982142;28;20695;-47
2021/05/28 06:10:57;;;;;;;7.05;6.35;;;;;;;;;;4986189;28;20178;-47
2021/05/28 06:13:22;;;;;;;7.68;7.07;;;;;;;;;;4988082;28;20186;-47
2021/05/28 06:15:47;;;;;;;8.13;7.53;;;;;;;;;;4974637;28;20717;-47
2021/05/28 06:18:12;;;;;;;9.03;8.20;;;;;;;;;;4968818;28;20194;-47
2021/05/28 06:20:37;;;;;;;8.10;7.40;;;;;;;;;;4985712;28;20182;-48
2021/05/28 06:23:03;;;;;;;7.67;7.17;;;;;;;;;;4987747;28;20185;-48
2021/05/28 06:25:28;;;;;;;7.87;7.27;;;;;;;;;;4985624;28;20881;-47
2021/05/28 06:27:53;;;;;;;7.00;6.50;;;;;;;;;;4987105;28;20202;-48
2021/05/28 06:30:18;;;;;;;8.23;7.43;;;;;;;;;;4987155;28;20282;-48
2021/05/28 06:32:43;;;;;;;8.00;7.40;;;;;;;;;;4987994;28;20182;-47
2021/05/28 06:35:09;;;;;;;7.80;7.20;;;;;;;;;;5002793;28;20173;-47
2021/05/28 06:37:34;;;;;;;7.30;6.80;;;;;;;;;;5006434;28;20532;-47
2021/05/28 06:40:02;;;;;;;7.73;7.03;;;;;;;;;;4993899;28;20169;-47
2021/05/28 06:42:27;;;;;;;6.93;6.43;;;;;;;;;;4993379;28;20780;-47
2021/05/28 06:44:52;;;;;;;6.65;6.15;;;;;;;;;;4996564;28;21093;-47
2021/05/28 06:47:18;;;;;;;6.70;6.10;;;;;;;;;;4985838;28;20695;-46
2021/05/28 06:49:43;;;;;;;7.33;6.73;;;;;;;;;;4986097;28;20213;-46
2021/05/28 06:52:09;;;;;;;7.17;6.47;;;;;;;;;;4975933;28;20525;-47
2021/05/28 06:54:34;;;;;;;7.80;7.20;;;;;;;;;;4990073;28;20256;-47
2021/05/28 06:56:59;;;;;;;7.93;7.33;;;;;;;;;;4987758;28;20177;-47
2021/05/28 06:59:25;;;;;;;8.23;7.40;;;;;;;;;;4989489;28;20170;-47
2021/05/28 07:01:50;;;;;;;10.27;8.17;;;;;;;;;;4988224;28;20343;-47
2021/05/28 07:04:15;;;;;;;8.87;7.97;;;;;;;;;;4990220;28;20213;-47
2021/05/28 07:06:40;;;;;;;8.40;7.70;;;;;;;;;;4990191;28;20189;-47
2021/05/28 07:09:06;;;;;;;8.15;7.55;;;;;;;;;;4987233;28;20219;-47
2021/05/28 07:11:31;;;;;;;7.60;7.00;;;;;;;;;;4968854;28;20180;-47
2021/05/28 07:13:56;;;;;;;7.47;6.87;;;;;;;;;;4976073;28;20186;-47
2021/05/28 07:16:21;;;;;;;7.43;6.80;;;;;;;;;;4988055;28;20271;-46
2021/05/28 07:18:48;;;;;;;8.27;7.67;;;;;;;;;;4989234;28;20171;-46
2021/05/28 07:21:13;;;;;;;7.77;7.17;;;;;;;;;;4989252;28;20191;-47
2021/05/28 07:23:38;;;;;;;7.40;6.87;;;;;;;;;;4998318;28;21003;-47
2021/05/28 07:26:03;;;;;;;7.38;6.78;;;;;;;;;;5008734;28;20182;-47
2021/05/28 07:28:29;;;;;;;7.70;7.20;;;;;;;;;;5008921;28;20207;-47
2021/05/28 07:30:54;;;;;;;8.27;7.67;;;;;;;;;;5008887;28;20230;-47
2021/05/28 07:33:20;;;;;;;8.40;7.70;;;;;;;;;;5003377;28;20732;-47
2021/05/28 07:35:45;;;;;;;7.20;6.60;;;;;;;;;;4989440;28;20641;-46
2021/05/28 07:38:10;;;;;;;8.07;7.47;;;;;;;;;;4989085;28;20179;-47
2021/05/28 07:40:35;;;;;;;7.45;6.75;;;;;;;;;;4987878;28;20233;-46
2021/05/28 07:43:01;;;;;;;7.63;7.13;;;;;;;;;;4985867;28;20197;-47
2021/05/28 07:45:26;;;;;;;7.30;6.80;;;;;;;;;;4976934;28;20184;-46
2021/05/28 07:47:51;;;;;;;7.53;7.03;;;;;;;;;;4967760;28;20216;-47
2021/05/28 07:50:17;;;;;;;7.47;6.80;;;;;;;;;;4969433;28;20199;-47
2021/05/28 07:52:42;;;;;;;8.23;7.53;;;;;;;;;;4971816;28;20169;-47
2021/05/28 07:55:07;;;;;;;7.83;7.23;;;;;;;;;;4997130;28;20167;-48
2021/05/28 07:57:33;;;;;;;7.27;6.87;;;;;;;;;;4987623;28;20576;-48
2021/05/28 07:59:58;;;;;;;7.68;7.18;;;;;;;;;;4986565;28;20188;-46
2021/05/28 08:02:23;;;;;;;7.47;6.97;;;;;;;;;;4987214;28;20230;-47
2021/05/28 08:04:48;;;;;;;7.23;6.70;;;;;;;;;;4987254;28;20758;-47
2021/05/28 08:07:13;;;;;;;7.30;6.70;;;;;;;;;;4987246;28;20172;-48
2021/05/28 08:09:38;;;;;;;7.03;6.53;;;;;;;;;;4986360;28;20210;-48
2021/05/28 08:12:04;;;;;;;8.07;7.47;;;;;;;;;;4988946;28;20184;-48
2021/05/28 08:14:29;;;;;;;6.10;5.60;;;;;;;;;;4988488;28;20200;-49
2021/05/28 08:16:54;;;;;;;6.82;6.40;;;;;;;;;;4988363;28;20181;-48
2021/05/28 08:19:19;;;;;;;6.57;6.10;;;;;;;;;;4988268;28;20199;-48
2021/05/28 08:21:45;;;;;;;7.60;6.87;;;;;;;;;;4988550;28;20178;-46
2021/05/28 08:24:10;;;;;;;6.75;6.25;;;;;;;;;;4998654;28;20196;-47
2021/05/28 08:26:35;;;;;;;7.20;6.50;;;;;;;;;;4986370;28;20317;-48
2021/05/28 08:29:01;;;;;;;7.40;6.90;;;;;;;;;;4987880;28;20217;-46
2021/05/28 08:31:26;;;;;;;7.17;6.47;;;;;;;;;;4988064;28;20351;-48
2021/05/28 08:33:51;;;;;;;7.72;7.20;;;;;;;;;;4989286;28;20180;-46
2021/05/28 08:36:16;;;;;;;6.43;5.93;;;;;;;;;;4986340;28;20180;-47
2021/05/28 08:38:41;;;;;;;7.50;7.00;;;;;;;;;;4986061;28;20180;-47
2021/05/28 08:41:08;;;;;;;6.60;6.10;;;;;;;;;;4986574;28;20596;-47
2021/05/28 08:43:34;;;;;;;7.30;6.63;;;;;;;;;;4988516;28;20184;-47
2021/05/28 08:46:01;;;;;;;6.10;5.70;;;;;;;;;;5005625;28;20720;-47
2021/05/28 08:48:26;;;;;;;6.07;5.67;;;;;;;;;;5007410;28;20211;-47
2021/05/28 08:50:52;;;;;;;6.50;6.00;;;;;;;;;;5007796;28;20586;-46
2021/05/28 08:53:17;;;;;;;5.40;5.10;;;;;;;;;;5006880;28;20195;-47
2021/05/28 08:55:43;;;;;;;6.10;5.60;;;;;;;;;;5005884;28;20536;-46
2021/05/28 08:58:09;;;;;;;5.10;4.60;;;;;;;;;;5005830;28;20180;-46
2021/05/28 09:00:35;;;;;;;5.57;5.17;;;;;;;;;;4983451;28;20240;-47
2021/05/28 09:03:36;;;;;;;6.17;5.70;;;;;;;;;;4987254;28;20583;-47
2021/05/28 09:06:02;;;;;;;4.57;4.30;;;;;;;;;;4944552;29;20300;-47
2021/05/28 09:08:27;;;;;;;4.80;4.50;;;;;;;;;;4977585;28;20738;-46
2021/05/28 09:10:56;;;;;;;4.95;4.65;;;;;;;;;;5004955;28;20595;-47
2021/05/28 09:13:24;;;;;;;3.80;3.60;;;;;;;;;;5007005;28;20263;-47
2021/05/28 09:15:50;;;;;;;4.07;3.87;;;;;;;;;;5005405;28;20603;-47
2021/05/28 09:18:15;;;;;;;9.80;3.90;;;;;;;;;;5004951;28;20618;-47
2021/05/28 09:20:45;;;;;;;2.97;2.77;;;;;;;;;;5006833;28;21105;-48
2021/05/28 09:23:12;;;;;;;3.77;3.57;;;;;;;;;;5005218;28;20694;-47
2021/05/28 09:25:57;;;;;;;3.97;3.77;;;;;;;;;;5003973;28;20677;-46
2021/05/28 09:28:23;;;;;;;3.60;3.20;;;;;;;;;;5006659;28;20638;-47
2021/05/28 09:30:55;;;;;;;3.13;2.83;;;;;;;;;;5006483;28;20689;-47
2021/05/28 09:33:20;;;;;;;3.97;3.67;;;;;;;;;;5005304;28;20204;-48
2021/05/28 09:35:47;;;;;;;3.53;3.30;;;;;;;;;;5004931;28;20680;-47
2021/05/28 09:38:19;;;;;;;3.80;3.50;;;;;;;;;;5001821;28;20185;-46
2021/05/28 09:40:44;;;;;;;4.40;3.60;;;;;;;;;;4985449;28;20839;-47
2021/05/28 09:43:13;;;;;;;2.88;2.67;;;;;;;;;;4987302;28;20581;-46
2021/05/28 09:45:39;;;;;;;3.70;3.33;;;;;;;;;;4988292;28;20181;-47
2021/05/28 09:48:13;;;;;;;2.97;2.77;;;;;;;;;;4987397;28;21057;-46
2021/05/28 09:50:46;;;;;;;3.00;2.90;;;;;;;;;;4987285;28;20579;-46
2021/05/28 09:53:39;;;;;;;3.57;3.37;;;;;;;;;;4991976;28;20656;-46
2021/05/28 09:56:23;;;;;;;3.60;3.40;;;;;;;;;;5005988;28;20602;-46
2021/05/28 09:59:00;;;;;;;3.33;3.13;;;;;;;;;;5006608;28;20591;-46
2021/05/28 10:01:26;;;;;;;3.40;3.10;;;;;;;;;;5006900;28;20594;-47
2021/05/28 10:04:04;;;;;;;2.73;2.50;;;;;;;;;;5004503;28;20605;-47
2021/05/28 10:06:30;;;;;;;3.20;3.00;;;;;;;;;;5006931;28;20213;-46
2021/05/28 10:08:56;;;;;;;3.43;3.23;;;;;;;;;;4994628;28;20759;-47
2021/05/28 10:11:21;;;;;;;2.80;2.60;;;;;;;;;;4980900;28;20855;-47
2021/05/28 10:13:47;;;;;;;2.87;2.60;;;;;;;;;;4985522;28;20709;-47
2021/05/28 10:16:13;;;;;;;3.10;2.80;;;;;;;;;;4987177;28;20191;-46
2021/05/28 10:18:38;;;;;;;3.53;3.03;;;;;;;;;;4986781;28;20177;-46
2021/05/28 10:21:03;;;;;;;4.15;3.10;;;;;;;;;;4986904;28;20593;-47
2021/05/28 10:23:28;;;;;;;3.20;3.00;;;;;;;;;;4992118;28;20178;-47
2021/05/28 10:25:55;;;;;;;2.70;2.60;;;;;;;;;;5004501;28;20212;-47
2021/05/28 10:28:21;;;;;;;3.10;2.90;;;;;;;;;;5006654;28;20217;-47
2021/05/28 10:30:49;;;;;;;3.00;2.80;;;;;;;;;;5005681;28;21005;-47
2021/05/28 10:33:16;;;;;;;2.60;2.50;;;;;;;;;;5001143;28;20607;-47
2021/05/28 10:35:46;;;;;;;2.93;2.80;;;;;;;;;;5006964;28;20676;-47
2021/05/28 10:38:29;;;;;;;2.80;2.60;;;;;;;;;;4992651;28;20604;-46
2021/05/28 10:40:54;;;;;;;2.60;2.50;;;;;;;;;;4990350;28;20600;-47
2021/05/28 10:43:20;;;;;;;4.80;2.20;;;;;;;;;;4986828;28;20590;-47
2021/05/28 10:45:54;;;;;;;3.13;2.60;;;;;;;;;;4991083;28;20176;-47
2021/05/28 10:48:37;;;;;;;2.27;2.13;;;;;;;;;;4994120;28;20298;-47
2021/05/28 10:51:06;;;;;;;1.83;1.73;;;;;;;;;;5000978;28;20607;-46
2021/05/28 10:53:31;;;;;;;1.70;1.60;;;;;;;;;;4996375;28;20595;-46
2021/05/28 10:56:00;;;;;;;2.00;1.60;;;;;;;;;;4999329;28;20627;-46
2021/05/28 10:58:44;;;;;;;2.67;1.90;;;;;;;;;;4965968;28;20177;-46
2021/05/28 11:01:27;;;;;;;1.83;1.63;;;;;;;;;;4969963;28;20567;-46
2021/05/28 11:03:52;;;;;;;1.93;1.50;;;;;;;;;;4973439;28;20634;-46
2021/05/28 11:06:17;;;;;;;1.50;1.48;;;;;;;;;;4989933;28;20607;-46
2021/05/28 11:08:44;;;;;;;1.80;1.70;;;;;;;;;;4998364;28;20197;-45
2021/05/28 11:11:28;;;;;;;1.67;1.57;;;;;;;;;;5007388;28;20169;-46
2021/05/28 11:13:54;;;;;;;1.87;1.77;;;;;;;;;;5009047;28;20937;-46
2021/05/28 11:16:19;;;;;;;1.40;1.40;;;;;;;;;;5005855;28;20608;-47
2021/05/28 11:18:46;;;;;;;1.60;1.50;;;;;;;;;;5009248;28;20181;-46
2021/05/28 11:21:16;;;;;;;1.27;1.27;;;;;;;;;;5006936;28;20393;-47
2021/05/28 11:23:42;;;;;;;1.73;1.63;;;;;;;;;;4998143;28;21170;-47
2021/05/28 11:26:13;;;;;;;1.30;1.20;;;;;;;;;;4987744;28;21168;-45
2021/05/28 11:28:49;;;;;;;2.23;1.43;;;;;;;;;;4989066;28;21233;-46
2021/05/28 11:31:14;;;;;;;1.30;1.30;;;;;;;;;;4985789;28;20747;-46
2021/05/28 11:33:40;;;;;;;1.90;1.70;;;;;;;;;;4992898;28;20704;-46
2021/05/28 11:36:35;;;;;;;1.70;1.60;;;;;;;;;;5007747;28;20178;-46
2021/05/28 11:39:01;;;;;;;2.10;2.00;;;;;;;;;;5008636;28;20634;-46
2021/05/28 11:41:53;;;;;;;4.63;1.80;;;;;;;;;;5008907;28;21069;-47
2021/05/28 11:44:19;;;;;;;2.10;2.00;;;;;;;;;;4998910;28;20620;-46
2021/05/28 11:46:45;;;;;;;2.07;1.97;;;;;;;;;;5008960;28;20586;-46
2021/05/28 11:49:12;;;;;;;2.30;2.10;;;;;;;;;;5002416;28;20739;-46
2021/05/28 11:51:38;;;;;;;2.60;2.40;;;;;;;;;;4988889;28;20582;-47
2021/05/28 11:54:38;;;;;;;3.20;2.40;;;;;;;;;;5000205;28;20741;-47
2021/05/28 11:57:13;;;;;;;2.10;2.00;;;;;;;;;;4984861;28;20543;-46
2021/05/28 11:59:49;;;;;;;1.93;1.83;;;;;;;;;;4999737;28;20605;-46
2021/05/28 12:02:38;;;;;;;2.57;2.40;;;;;;;;;;4980687;28;20616;-45
2021/05/28 12:05:04;;;;;;;1.87;1.77;;;;;;;;;;4986380;28;20622;-47
2021/05/28 12:07:29;;;;;;;3.53;2.10;;;;;;;;;;4988759;28;20584;-46
2021/05/28 12:09:58;;;;;;;2.37;2.27;;;;;;;;;;5004416;28;20743;-46
2021/05/28 12:12:23;;;;;;;1.97;1.87;;;;;;;;;;4995820;28;20191;-47
2021/05/28 12:15:04;;;;;;;1.83;1.73;;;;;;;;;;4987267;28;20688;-45
2021/05/28 12:17:31;;;;;;;2.23;2.13;;;;;;;;;;4984395;28;20179;-45
2021/05/28 12:19:56;;;;;;;2.97;1.87;;;;;;;;;;4987538;28;20576;-47
2021/05/28 12:22:21;;;;;;;2.17;2.08;;;;;;;;;;4985631;28;20640;-46
2021/05/28 12:24:46;;;;;;;3.30;2.58;;;;;;;;;;5003329;28;20183;-45
2021/05/28 12:27:12;;;;;;;2.60;2.50;;;;;;;;;;5007541;28;20197;-46
2021/05/28 12:29:37;;;;;;;2.37;2.27;;;;;;;;;;5008238;28;20203;-45
2021/05/28 12:32:03;;;;;;;2.70;2.50;;;;;;;;;;5005812;28;20630;-45
2021/05/28 12:34:28;;;;;;;3.00;2.90;;;;;;;;;;4997374;28;20469;-45
2021/05/28 12:37:01;;;;;;;3.35;3.05;;;;;;;;;;4985698;28;20178;-45
2021/05/28 12:39:29;;;;;;;3.23;2.97;;;;;;;;;;5005799;28;20230;-45
2021/05/28 12:41:54;;;;;;;3.30;3.00;;;;;;;;;;5005221;28;20607;-46
2021/05/28 12:44:21;;;;;;;3.17;2.97;;;;;;;;;;5006201;28;20602;-45
2021/05/28 12:46:56;;;;;;;3.40;3.07;;;;;;;;;;5007593;28;20659;-45
2021/05/28 12:49:27;;;;;;;3.40;3.13;;;;;;;;;;4989503;28;20635;-45
2021/05/28 12:51:52;;;;;;;3.20;2.90;;;;;;;;;;4985589;28;20592;-47
2021/05/28 12:54:22;;;;;;;2.87;2.67;;;;;;;;;;5001236;28;20665;-46
2021/05/28 12:56:47;;;;;;;2.80;2.60;;;;;;;;;;5007717;28;20180;-47
2021/05/28 12:59:23;;;;;;;3.00;2.73;;;;;;;;;;4975994;28;20617;-46
2021/05/28 13:01:50;;;;;;;2.60;2.40;;;;;;;;;;4981383;28;20208;-46
2021/05/28 13:04:15;;;;;;;2.10;2.00;;;;;;;;;;4967862;28;20608;-46
2021/05/28 13:06:45;;;;;;;3.03;2.20;;;;;;;;;;4968304;28;20710;-46
2021/05/28 13:09:12;;;;;;;1.97;1.87;;;;;;;;;;4992502;28;20211;-46
2021/05/28 13:11:54;;;;;;;1.93;1.80;;;;;;;;;;5003668;28;20585;-56
2021/05/28 13:14:25;;;;;;;2.67;2.47;;;;;;;;;;5007194;28;20579;-50
2021/05/28 13:16:51;;;;;;;2.20;2.10;;;;;;;;;;5005737;28;20674;-46
2021/05/28 13:19:16;;;;;;;2.30;2.20;;;;;;;;;;5005268;28;21295;-46
2021/05/28 13:21:50;;;;;;;3.00;2.80;;;;;;;;;;5005344;28;20179;-44
2021/05/28 13:24:34;;;;;;;2.33;2.23;;;;;;;;;;5004479;28;20190;-46
2021/05/28 13:27:07;;;;;;;2.60;2.40;;;;;;;;;;5002441;28;20621;-45
2021/05/28 13:29:42;;;;;;;2.60;2.40;;;;;;;;;;4988116;28;20776;-44
2021/05/28 13:32:09;;;;;;;2.83;2.63;;;;;;;;;;4985462;28;20613;-45
2021/05/28 13:34:42;;;;;;;2.73;2.53;;;;;;;;;;4987138;28;20605;-46
2021/05/28 13:37:07;;;;;;;2.73;2.63;;;;;;;;;;4985048;28;20609;-45
2021/05/28 13:39:32;;;;;;;2.80;2.60;;;;;;;;;;5001360;28;20615;-46
2021/05/28 13:41:57;;;;;;;4.38;2.30;;;;;;;;;;4982071;28;20188;-46
2021/05/28 13:44:22;;;;;;;2.85;2.35;;;;;;;;;;4999051;28;20199;-45
2021/05/28 13:46:48;;;;;;;2.27;2.17;;;;;;;;;;4995232;28;20172;-46
2021/05/28 13:49:13;;;;;;;2.40;2.30;;;;;;;;;;4985604;28;20700;-44
2021/05/28 13:51:38;;;;;;;3.00;2.80;;;;;;;;;;4982717;28;20910;-45
2021/05/28 13:54:05;;;;;;;3.77;2.50;;;;;;;;;;4996170;28;20371;-45
2021/05/28 13:56:30;;;;;;;2.57;2.37;;;;;;;;;;4995678;28;20664;-45
2021/05/28 13:58:55;;;;;;;2.30;2.07;;;;;;;;;;4992417;28;20601;-46
2021/05/28 14:01:20;;;;;;;2.30;2.10;;;;;;;;;;5001750;28;20322;-47
2021/05/28 14:03:45;;;;;;;1.98;1.88;;;;;;;;;;5002530;28;20188;-46
2021/05/28 14:06:11;;;;;;;2.47;2.27;;;;;;;;;;5002199;28;20549;-46
2021/05/28 14:08:36;;;;;;;2.28;2.08;;;;;;;;;;4996012;28;20212;-46
2021/05/28 14:11:01;;;;;;;1.83;1.73;;;;;;;;;;4984273;28;20753;-47
2021/05/28 14:13:29;;;;;;;3.73;2.40;;;;;;;;;;5007471;28;20800;-47
2021/05/28 14:15:54;;;;;;;2.30;2.13;;;;;;;;;;5006316;28;20543;-46
2021/05/28 14:18:19;;;;;;;1.97;1.87;;;;;;;;;;4993495;28;20606;-47
2021/05/28 14:20:45;;;;;;;3.10;2.30;;;;;;;;;;4996535;28;20191;-47
2021/05/28 14:23:10;;;;;;;2.58;2.38;;;;;;;;;;4987168;28;20213;-47
2021/05/28 14:25:35;;;;;;;2.53;2.33;;;;;;;;;;4988093;28;20646;-47
2021/05/28 14:28:02;;;;;;;2.27;2.13;;;;;;;;;;4986509;28;21950;-48
2021/05/28 14:30:28;;;;;;;2.07;1.97;;;;;;;;;;4991411;28;20253;-49
2021/05/28 14:32:53;;;;;;;2.47;2.10;;;;;;;;;;4989193;28;20612;-47
2021/05/28 14:35:19;;;;;;;2.00;1.90;;;;;;;;;;4989205;28;21419;-49
2021/05/28 14:37:44;;;;;;;2.37;2.27;;;;;;;;;;4983283;28;20208;-46